Time;durP1;ratioP1;P1;durP2;ratioP2;P2;SDS_P1;SDS_P2;PMS_P1;PMS_P2;Temp;Humidity;BMP_temperature;BMP_pressure;BME280_temperature;BME280_humidity;BME280_pressure;Samples;Min_cycle;Max_cycle;Signal;HPM_P1;HPM_P2
2022/12/19 00:01:25;;;;;;;9.05;6.22;;;;;;;16.42;nan;100481.44;4950562;28;20050;-80
2022/12/19 00:03:57;;;;;;;9.70;6.82;;;;;;;16.42;nan;100467.44;4985179;28;20046;-80
2022/12/19 00:06:27;;;;;;;7.13;5.72;;;;;;;16.39;nan;100478.25;4949318;28;20411;-80
2022/12/19 00:08:54;;;;;;;7.72;6.15;;;;;;;16.37;nan;100464.38;4935018;28;20035;-79
2022/12/19 00:11:24;;;;;;;10.18;7.05;;;;;;;16.35;nan;100467.13;4962541;28;20066;-80
2022/12/19 00:13:50;;;;;;;10.40;6.80;;;;;;;16.36;nan;100466.16;4948269;28;20047;-80
2022/12/19 00:16:24;;;;;;;9.30;6.63;;;;;;;16.39;nan;100470.34;4963368;28;20065;-80
2022/12/19 00:18:51;;;;;;;8.70;6.35;;;;;;;16.36;nan;100474.06;4933749;28;20050;-80
2022/12/19 00:21:20;;;;;;;9.38;6.13;;;;;;;16.31;nan;100470.97;4980262;28;20047;-80
2022/12/19 00:23:47;;;;;;;7.88;7.07;;;;;;;16.33;nan;100474.34;4966129;28;20046;-80
2022/12/19 00:26:17;;;;;;;11.13;6.60;;;;;;;16.28;nan;100466.00;4940463;28;20038;-80
2022/12/19 00:28:49;;;;;;;9.50;7.23;;;;;;;16.31;nan;100467.53;4964709;28;20403;-80
2022/12/19 00:31:19;;;;;;;6.93;5.63;;;;;;;16.30;nan;100466.69;4976076;28;20050;-80
2022/12/19 00:33:46;;;;;;;10.10;7.00;;;;;;;16.30;nan;100469.31;4965075;28;20049;-80
2022/12/19 00:36:21;;;;;;;7.55;5.85;;;;;;;16.27;nan;100464.31;4981432;28;20039;-80
2022/12/19 00:38:51;;;;;;;10.02;6.18;;;;;;;16.24;nan;100462.78;4946915;28;20034;-80
2022/12/19 00:41:29;;;;;;;7.60;5.60;;;;;;;16.26;nan;100460.84;4947314;28;20039;-79
2022/12/19 00:43:56;;;;;;;7.07;5.93;;;;;;;16.25;nan;100460.97;4940543;28;20045;-79
2022/12/19 00:46:26;;;;;;;7.13;5.97;;;;;;;16.24;nan;100459.28;4953290;28;20065;-80
2022/12/19 00:48:55;;;;;;;8.55;7.10;;;;;;;16.23;nan;100444.47;4937614;28;20046;-80
2022/12/19 00:51:28;;;;;;;9.32;7.00;;;;;;;16.23;nan;100447.94;4965789;28;20035;-80
2022/12/19 00:53:56;;;;;;;8.55;5.95;;;;;;;16.23;nan;100444.47;4959993;28;20720;-79
2022/12/19 00:56:25;;;;;;;9.52;6.13;;;;;;;16.22;nan;100440.16;4955748;28;20042;-79
2022/12/19 00:58:52;;;;;;;7.15;6.25;;;;;;;16.21;nan;100438.47;4971254;28;20050;-79
2022/12/19 01:01:39;;;;;;;9.27;6.10;;;;;;;16.18;nan;100431.69;4971132;28;20496;-80
2022/12/19 01:04:12;;;;;;;7.78;6.07;;;;;;;16.17;nan;100435.28;4967563;28;20027;-79
2022/12/19 01:06:42;;;;;;;7.50;6.55;;;;;;;16.12;nan;100424.28;4947610;28;20046;-79
2022/12/19 01:09:10;;;;;;;10.38;6.40;;;;;;;16.16;nan;100436.25;4977323;28;20054;-80
2022/12/19 01:14:23;;;;;;;8.90;7.38;;;;;;;16.14;nan;100421.53;4955032;28;20058;-79
2022/12/19 01:16:50;;;;;;;8.45;6.63;;;;;;;16.12;nan;100419.03;4942517;28;20038;-79
2022/12/19 01:19:20;;;;;;;8.27;7.13;;;;;;;16.11;nan;100427.06;4975037;28;20051;-80
2022/12/19 01:21:49;;;;;;;10.68;6.68;;;;;;;16.13;nan;100433.06;4974504;23;20412;-79
2022/12/19 01:24:17;;;;;;;8.85;6.47;;;;;;;16.12;nan;100431.38;4969724;28;20039;-79
2022/12/19 01:26:43;;;;;;;6.10;5.45;;;;;;;16.10;nan;100433.31;4970628;28;20448;-78
2022/12/19 01:29:14;;;;;;;8.70;6.55;;;;;;;16.11;nan;100433.19;4951589;28;20397;-79
2022/12/19 01:31:42;;;;;;;9.25;6.50;;;;;;;16.11;nan;100434.97;4962105;28;20040;-78
2022/12/19 01:34:08;;;;;;;9.35;6.63;;;;;;;16.12;nan;100444.53;4942401;28;20034;-79
2022/12/19 01:36:35;;;;;;;8.38;6.55;;;;;;;16.12;nan;100436.63;4942067;29;20039;-78
2022/12/19 01:39:03;;;;;;;11.27;7.43;;;;;;;16.12;nan;100429.56;4967406;28;20042;-78
2022/12/19 01:41:29;;;;;;;9.55;6.70;;;;;;;16.11;nan;100429.69;4924159;29;21837;-79
2022/12/19 01:44:01;;;;;;;7.55;5.70;;;;;;;16.10;nan;100430.66;4952460;28;20047;-79
2022/12/19 01:46:33;;;;;;;9.27;6.50;;;;;;;16.08;nan;100413.19;4949785;28;20411;-79
2022/12/19 01:49:01;;;;;;;7.90;6.20;;;;;;;16.09;nan;100419.31;4968958;28;20047;-79
2022/12/19 01:51:38;;;;;;;7.28;6.38;;;;;;;16.10;nan;100413.06;4948307;28;20043;-79
2022/12/19 01:54:08;;;;;;;9.02;6.30;;;;;;;16.10;nan;100409.59;4946658;28;20035;-79
2022/12/19 01:56:39;;;;;;;7.78;5.65;;;;;;;16.08;nan;100420.25;4931438;29;20047;-79
2022/12/19 01:59:13;;;;;;;7.10;5.15;;;;;;;16.06;nan;100404.59;4945788;28;20046;-79
2022/12/19 02:01:44;;;;;;;9.07;5.55;;;;;;;16.07;nan;100401.00;4946615;28;20042;-79
2022/12/19 02:04:18;;;;;;;8.35;5.90;;;;;;;16.09;nan;100408.75;4946306;28;20039;-79
2022/12/19 02:06:47;;;;;;;8.50;6.32;;;;;;;16.08;nan;100409.72;4930998;28;20047;-79
2022/12/19 02:09:16;;;;;;;8.85;6.55;;;;;;;16.10;nan;100409.59;4966435;28;20035;-79
2022/12/19 02:11:48;;;;;;;8.73;6.70;;;;;;;16.07;nan;100393.09;4949040;28;20490;-79
2022/12/19 02:14:17;;;;;;;6.53;5.35;;;;;;;16.08;nan;100392.09;4940400;28;20398;-79
2022/12/19 02:16:58;;;;;;;7.40;5.95;;;;;;;16.08;nan;100388.63;4949396;28;20066;-79
2022/12/19 02:19:54;;;;;;;9.82;6.57;;;;;;;16.09;nan;100392.97;4960917;28;20039;-79
2022/12/19 02:22:38;;;;;;;14.38;7.82;;;;;;;16.08;nan;100392.09;4957393;28;20401;-79
2022/12/19 02:25:28;;;;;;;9.45;6.22;;;;;;;16.08;nan;100394.72;4949749;28;20035;-79
2022/12/19 02:28:23;;;;;;;8.50;6.13;;;;;;;16.08;nan;100391.28;4948989;28;20401;-79
2022/12/19 02:31:27;;;;;;;12.57;8.18;;;;;;;16.08;nan;100400.00;4962780;28;20062;-79
2022/12/19 02:34:15;;;;;;;8.38;5.18;;;;;;;16.08;nan;100405.28;4967053;28;20077;-79
2022/12/19 02:37:19;;;;;;;7.65;6.85;;;;;;;16.08;nan;100407.91;4932415;29;20039;-79
2022/12/19 02:39:59;;;;;;;9.90;6.50;;;;;;;16.09;nan;100398.22;4949427;28;20039;-79
2022/12/19 02:42:34;;;;;;;6.38;5.70;;;;;;;16.09;nan;100392.97;4946107;28;20039;-79
2022/12/19 02:45:07;;;;;;;8.68;6.38;;;;;;;16.09;nan;100387.69;4945995;28;20039;-79
2022/12/19 02:47:36;;;;;;;8.73;5.82;;;;;;;16.10;nan;100383.25;4944888;28;20043;-79
2022/12/19 02:50:04;;;;;;;7.88;6.35;;;;;;;16.11;nan;100390.16;4951828;28;20039;-79
2022/12/19 02:52:30;;;;;;;8.05;5.45;;;;;;;16.10;nan;100378.81;4983206;23;20073;-79
2022/12/19 02:54:59;;;;;;;8.05;5.10;;;;;;;16.10;nan;100385.88;4964692;28;20053;-79
2022/12/19 02:57:49;;;;;;;8.07;6.70;;;;;;;16.09;nan;100398.22;5001295;28;20034;-79
2022/12/19 03:00:26;;;;;;;7.07;6.38;;;;;;;16.11;nan;100398.06;4982171;28;20042;-79
2022/12/19 03:03:05;;;;;;;7.90;6.97;;;;;;;16.10;nan;100386.69;4935145;28;20493;-79
2022/12/19 03:05:55;;;;;;;8.18;5.90;;;;;;;16.10;nan;100378.81;4962826;28;20039;-79
2022/12/19 03:08:48;;;;;;;9.32;6.07;;;;;;;16.11;nan;100390.16;4969597;28;20042;-79
2022/12/19 03:11:21;;;;;;;8.13;7.30;;;;;;;16.11;nan;100390.16;4958721;28;20745;-79
2022/12/19 03:13:57;;;;;;;7.82;6.30;;;;;;;16.12;nan;100400.56;4967368;28;20043;-79
2022/12/19 03:16:27;;;;;;;8.98;5.75;;;;;;;16.12;nan;100394.47;4986315;28;20047;-79
2022/12/19 03:18:54;;;;;;;9.23;5.30;;;;;;;16.11;nan;100392.78;4969128;28;20041;-79
2022/12/19 03:21:39;;;;;;;9.02;5.97;;;;;;;16.13;nan;100388.25;4970237;28;20042;-79
2022/12/19 03:24:12;;;;;;;7.53;5.72;;;;;;;16.13;nan;100399.63;4973579;28;20043;-79
2022/12/19 03:27:00;;;;;;;7.85;5.50;;;;;;;16.12;nan;100405.03;4956420;28;20047;-79
2022/12/19 03:29:46;;;;;;;7.07;4.97;;;;;;;16.13;nan;100410.16;4963861;28;20043;-79
2022/12/19 03:32:16;;;;;;;7.75;6.40;;;;;;;16.15;nan;100405.59;4964844;28;20046;-79
2022/12/19 03:34:51;;;;;;;8.75;6.93;;;;;;;16.15;nan;100407.41;4976533;28;20390;-79
2022/12/19 03:37:23;;;;;;;6.60;5.68;;;;;;;16.12;nan;100416.38;4997630;28;20042;-79
2022/12/19 03:39:57;;;;;;;7.82;5.70;;;;;;;16.15;nan;100415.31;4966823;28;20030;-79
2022/12/19 03:45:28;;;;;;;7.72;5.22;;;;;;;16.16;nan;100409.03;4971755;28;20485;-78
2022/12/19 03:48:02;;;;;;;7.55;6.10;;;;;;;16.16;nan;100411.69;4975605;28;20030;-79
2022/12/19 03:50:47;;;;;;;8.53;6.10;;;;;;;16.17;nan;100405.47;4973542;28;20504;-79
2022/12/19 03:53:38;;;;;;;7.38;5.55;;;;;;;16.17;nan;100406.28;4981219;28;20301;-79
2022/12/19 03:56:30;;;;;;;8.68;6.78;;;;;;;16.19;nan;100401.75;4971299;28;20050;-79
2022/12/19 03:59:07;;;;;;;7.25;6.47;;;;;;;16.18;nan;100401.88;4977214;28;20047;-79
2022/12/19 04:01:41;;;;;;;9.18;6.47;;;;;;;16.18;nan;100402.69;4980759;28;20430;-79
2022/12/19 04:04:12;;;;;;;7.18;6.00;;;;;;;16.19;nan;100395.59;4949473;28;20042;-79
2022/12/19 04:06:43;;;;;;;7.30;6.50;;;;;;;16.20;nan;100399.94;4970009;28;20065;-79
2022/12/19 04:09:13;;;;;;;8.25;6.03;;;;;;;16.19;nan;100401.75;4969683;28;20034;-79
2022/12/19 04:11:54;;;;;;;9.32;5.65;;;;;;;16.20;nan;100407.84;4993782;28;20413;-79
2022/12/19 04:14:35;;;;;;;9.38;6.63;;;;;;;16.21;nan;100401.56;4968449;28;20038;-79
2022/12/19 04:17:13;;;;;;;8.30;5.63;;;;;;;16.20;nan;100411.28;4974283;28;21767;-79
2022/12/19 04:19:43;;;;;;;8.38;5.90;;;;;;;16.21;nan;100415.59;4968974;28;20046;-79
2022/12/19 04:22:23;;;;;;;9.52;6.00;;;;;;;16.22;nan;100416.44;4970302;28;20046;-79
2022/12/19 04:24:55;;;;;;;9.55;6.55;;;;;;;16.23;nan;100416.31;4967515;28;20921;-79
2022/12/19 04:27:33;;;;;;;7.22;5.82;;;;;;;16.23;nan;100421.56;4969102;28;20053;-79
2022/12/19 04:30:07;;;;;;;8.35;6.35;;;;;;;16.25;nan;100424.09;4972066;28;20035;-79
2022/12/19 04:32:37;;;;;;;11.23;6.53;;;;;;;16.24;nan;100422.41;4963150;28;20108;-81
2022/12/19 04:35:08;;;;;;;7.10;6.40;;;;;;;16.25;nan;100424.09;4974851;28;20505;-85
2022/12/19 04:37:39;;;;;;;6.80;6.10;;;;;;;16.25;nan;100417.00;4944831;28;20045;-81
2022/12/19 04:40:10;;;;;;;8.05;6.13;;;;;;;16.24;nan;100412.72;4990962;28;20035;-81
2022/12/19 04:42:39;;;;;;;8.75;6.45;;;;;;;16.27;nan;100414.22;4972588;28;20057;-82
2022/12/19 04:45:05;;;;;;;7.95;6.35;;;;;;;16.26;nan;100410.78;4966730;28;20420;-81
2022/12/19 04:47:39;;;;;;;10.65;6.95;;;;;;;16.26;nan;100409.91;4934658;28;20042;-81
2022/12/19 04:50:10;;;;;;;8.50;7.22;;;;;;;16.28;nan;100405.38;4964556;28;20501;-82
2022/12/19 04:52:36;;;;;;;8.65;6.40;;;;;;;16.29;nan;100403.56;4964161;28;20057;-86
2022/12/19 04:55:05;;;;;;;5.97;5.13;;;;;;;16.28;nan;100408.00;4972650;28;20050;-79
2022/12/19 04:57:33;;;;;;;11.90;6.28;;;;;;;16.30;nan;100407.88;4965432;28;20034;-80
2022/12/19 05:00:02;;;;;;;9.05;5.85;;;;;;;16.30;nan;100405.25;4954310;28;20042;-80
2022/12/19 05:02:28;;;;;;;7.55;5.95;;;;;;;16.30;nan;100403.44;4984939;28;20070;-81
2022/12/19 05:04:59;;;;;;;9.60;6.10;;;;;;;16.30;nan;100408.69;4978133;28;20039;-80
2022/12/19 05:07:25;;;;;;;10.25;6.80;;;;;;;16.32;nan;100412.03;4988680;28;20051;-77
2022/12/19 05:10:03;;;;;;;7.80;5.40;;;;;;;16.32;nan;100413.84;4956283;28;20059;-83
2022/12/19 05:12:31;;;;;;;6.68;5.22;;;;;;;16.32;nan;100406.75;4968923;28;20404;-78
2022/12/19 05:14:57;;;;;;;6.78;5.55;;;;;;;16.33;nan;100412.84;4967857;28;20047;-80
2022/12/19 05:17:23;;;;;;;8.68;6.43;;;;;;;16.32;nan;100404.13;4960659;28;20035;-78
2022/12/19 05:19:52;;;;;;;7.43;6.00;;;;;;;16.33;nan;100404.94;4953828;28;20038;-79
2022/12/19 05:22:20;;;;;;;6.90;6.18;;;;;;;16.35;nan;100405.69;4975210;28;20417;-79
2022/12/19 05:24:49;;;;;;;7.55;6.43;;;;;;;16.36;nan;100402.06;4967721;28;20039;-79
2022/12/19 05:27:20;;;;;;;9.75;6.30;;;;;;;16.36;nan;100388.88;4966239;28;20035;-79
2022/12/19 05:29:53;;;;;;;8.85;5.22;;;;;;;16.36;nan;100402.06;4984361;28;20035;-84
2022/12/19 05:32:21;;;;;;;9.10;6.88;;;;;;;16.36;nan;100389.69;4946035;28;20047;-79
2022/12/19 05:34:49;;;;;;;7.93;5.50;;;;;;;16.38;nan;100397.47;4954255;28;20046;-79
2022/12/19 05:37:16;;;;;;;5.07;4.55;;;;;;;16.38;nan;100400.97;4958762;28;20045;-80
2022/12/19 05:39:46;;;;;;;8.38;6.53;;;;;;;16.40;nan;100400.84;4960362;28;20038;-79
2022/12/19 05:42:15;;;;;;;9.32;5.22;;;;;;;16.40;nan;100404.28;4966368;28;20039;-79
2022/12/19 05:44:43;;;;;;;8.00;6.00;;;;;;;16.41;nan;100403.31;4960188;28;20039;-80
2022/12/19 05:47:09;;;;;;;9.07;7.43;;;;;;;16.41;nan;100403.31;4964851;28;20039;-79
2022/12/19 05:49:40;;;;;;;7.15;5.63;;;;;;;16.44;nan;100407.50;4963251;28;20058;-79
2022/12/19 05:52:13;;;;;;;6.82;6.18;;;;;;;16.45;nan;100401.25;4959992;28;20049;-80
2022/12/19 05:54:44;;;;;;;6.75;5.10;;;;;;;16.45;nan;100410.00;4963390;28;20035;-79
2022/12/19 05:57:12;;;;;;;9.43;6.88;;;;;;;16.47;nan;100419.59;4958099;28;20031;-79
2022/12/19 05:59:38;;;;;;;7.90;6.05;;;;;;;16.48;nan;100405.41;4958810;28;20047;-79
2022/12/19 06:02:09;;;;;;;6.55;5.55;;;;;;;16.48;nan;100394.88;4943458;28;20034;-79
2022/12/19 06:04:35;;;;;;;10.00;6.20;;;;;;;16.50;nan;100392.94;4957412;28;20042;-78
2022/12/19 06:07:02;;;;;;;7.38;6.25;;;;;;;16.52;nan;100409.47;4955167;28;20057;-78
2022/12/19 06:09:33;;;;;;;7.00;5.57;;;;;;;16.53;nan;100414.59;4967423;28;20031;-78
2022/12/19 06:11:59;;;;;;;9.60;6.43;;;;;;;16.54;nan;100412.81;4976385;28;20498;-78
2022/12/19 06:14:30;;;;;;;8.75;6.07;;;;;;;16.56;nan;100411.69;4964377;28;20057;-78
2022/12/19 06:16:59;;;;;;;8.93;5.75;;;;;;;16.56;nan;100414.31;4955390;28;20038;-78
2022/12/19 06:19:25;;;;;;;8.98;6.20;;;;;;;16.57;nan;100423.09;4972254;28;20045;-78
2022/12/19 06:21:56;;;;;;;12.10;5.93;;;;;;;16.59;nan;100429.06;4942217;28;20053;-78
2022/12/19 06:24:27;;;;;;;7.00;5.35;;;;;;;16.59;nan;100418.50;4979133;28;20045;-78
2022/12/19 06:26:54;;;;;;;6.57;5.68;;;;;;;16.59;nan;100421.97;4962113;28;20729;-78
2022/12/19 06:29:22;;;;;;;8.98;4.75;;;;;;;16.60;nan;100420.16;4942779;28;20041;-78
2022/12/19 06:31:53;;;;;;;8.27;6.00;;;;;;;16.62;nan;100428.78;4954316;28;20034;-78
2022/12/19 06:34:21;;;;;;;6.85;5.40;;;;;;;16.63;nan;100422.53;4973058;28;20042;-78
2022/12/19 06:36:48;;;;;;;8.48;6.55;;;;;;;16.63;nan;100428.63;4971811;28;20038;-78
2022/12/19 06:39:17;;;;;;;8.35;4.95;;;;;;;16.66;nan;100421.44;4975947;28;20073;-78
2022/12/19 06:44:33;;;;;;;7.30;6.07;;;;;;;16.66;nan;100411.72;4971658;28;20042;-78
2022/12/19 06:47:02;;;;;;;7.72;5.90;;;;;;;16.67;nan;100421.31;4986907;28;20031;-78
2022/12/19 06:49:28;;;;;;;7.72;5.20;;;;;;;16.67;nan;100412.53;4974206;28;20065;-78
2022/12/19 06:51:56;;;;;;;7.07;5.13;;;;;;;16.69;nan;100415.88;4976555;28;20066;-78
2022/12/19 06:54:25;;;;;;;7.07;5.45;;;;;;;16.67;nan;100410.75;4968725;28;20114;-78
2022/12/19 06:56:53;;;;;;;6.18;5.38;;;;;;;16.69;nan;100411.44;4971669;28;20038;-78
2022/12/19 06:59:24;;;;;;;7.43;5.25;;;;;;;16.71;nan;100420.06;4939741;28;20496;-78
2022/12/19 07:01:58;;;;;;;;;;;;;;;16.69;nan;100411.44;4972692;28;20500;-78
2022/12/19 07:04:33;;;;;;;5.85;4.72;;;;;;;16.70;nan;100415.75;4974612;28;20376;-78
2022/12/19 07:06:59;;;;;;;7.97;5.90;;;;;;;16.72;nan;100416.47;4969818;28;20042;-78
2022/12/19 07:09:29;;;;;;;9.93;6.38;;;;;;;16.73;nan;100415.47;4972293;28;20505;-78
2022/12/19 07:12:05;;;;;;;7.03;5.18;;;;;;;16.73;nan;100409.38;4970582;28;20039;-78
2022/12/19 07:14:34;;;;;;;6.47;5.57;;;;;;;16.74;nan;100413.66;4984763;28;20043;-78
2022/12/19 07:17:07;;;;;;;8.43;5.80;;;;;;;16.75;nan;100418.81;4974897;28;20042;-78
2022/12/19 07:19:36;;;;;;;7.25;5.00;;;;;;;16.76;nan;100417.84;4982986;28;20053;-78
2022/12/19 07:22:03;;;;;;;6.55;5.72;;;;;;;16.76;nan;100411.75;4988691;23;20047;-81
2022/12/19 07:24:33;;;;;;;8.65;5.50;;;;;;;16.77;nan;100416.88;4948416;28;20054;-80
2022/12/19 07:26:59;;;;;;;10.60;6.55;;;;;;;16.77;nan;100416.88;4965464;28;20046;-80
2022/12/19 07:29:25;;;;;;;6.22;4.95;;;;;;;16.77;nan;100422.16;4946597;28;20062;-81
2022/12/19 07:31:52;;;;;;;8.88;5.63;;;;;;;16.78;nan;100421.19;4932152;29;20492;-81
2022/12/19 07:34:20;;;;;;;6.72;5.30;;;;;;;16.79;nan;100422.00;4948246;28;20523;-81
2022/12/19 07:36:46;;;;;;;6.18;5.43;;;;;;;16.79;nan;100428.13;4948476;28;20058;-81
2022/12/19 07:39:12;;;;;;;6.93;5.95;;;;;;;16.79;nan;100430.78;4948815;29;20043;-81
2022/12/19 07:41:39;;;;;;;6.35;5.35;;;;;;;16.81;nan;100426.19;4929372;29;20054;-81
2022/12/19 07:44:05;;;;;;;9.13;6.32;;;;;;;16.83;nan;100433.97;4933979;29;20774;-80
2022/12/19 07:46:34;;;;;;;6.95;5.93;;;;;;;16.82;nan;100430.50;4953930;28;20046;-81
2022/12/19 07:49:00;;;;;;;8.50;6.00;;;;;;;16.83;nan;100429.50;4932858;29;20449;-81
2022/12/19 07:51:26;;;;;;;8.93;6.28;;;;;;;16.86;nan;100435.50;4947445;29;20050;-81
2022/12/19 07:53:53;;;;;;;7.60;5.60;;;;;;;16.86;nan;100438.16;4913621;29;20424;-81
2022/12/19 07:56:21;;;;;;;8.13;5.32;;;;;;;16.87;nan;100437.19;4964148;28;20046;-81
2022/12/19 07:58:47;;;;;;;6.88;5.53;;;;;;;16.86;nan;100443.44;4947664;29;20100;-81
2022/12/19 08:01:13;;;;;;;7.10;5.38;;;;;;;16.87;nan;100450.38;4936013;29;20444;-81
2022/12/19 08:03:39;;;;;;;6.13;5.47;;;;;;;16.87;nan;100442.47;4953603;28;20046;-81
2022/12/19 08:06:06;;;;;;;8.77;5.60;;;;;;;16.88;nan;100431.78;4947643;28;20036;-80
2022/12/19 08:08:33;;;;;;;9.45;5.60;;;;;;;16.89;nan;100441.34;4963494;28;20040;-81
2022/12/19 08:11:16;;;;;;;6.13;4.93;;;;;;;16.89;nan;100449.25;4945551;29;20608;-81
2022/12/19 08:13:46;;;;;;;7.22;5.22;;;;;;;16.89;nan;100449.25;4949157;29;20484;-82
2022/12/19 08:16:13;;;;;;;9.27;5.35;;;;;;;16.90;nan;100444.84;4929848;29;20043;-82
2022/12/19 08:18:39;;;;;;;5.90;5.30;;;;;;;16.91;nan;100443.84;4949702;29;20074;-81
2022/12/19 08:21:07;;;;;;;6.40;5.20;;;;;;;16.91;nan;100443.84;4946745;29;20494;-82
2022/12/19 08:23:33;;;;;;;6.30;4.97;;;;;;;16.93;nan;100441.94;4934565;29;20039;-81
2022/12/19 08:26:02;;;;;;;8.88;5.57;;;;;;;16.92;nan;100441.09;4948695;29;20058;-82
2022/12/19 08:28:29;;;;;;;6.78;5.20;;;;;;;16.95;nan;100445.28;4951989;29;20043;-82
2022/12/19 08:31:07;;;;;;;9.60;6.60;;;;;;;16.95;nan;100445.28;4949785;29;20066;-83
2022/12/19 08:33:37;;;;;;;6.88;4.63;;;;;;;16.94;nan;100448.88;4932388;29;20050;-82
2022/12/19 08:36:08;;;;;;;7.93;5.88;;;;;;;16.96;nan;100441.63;4942867;29;20051;-82
2022/12/19 08:38:35;;;;;;;6.88;5.38;;;;;;;16.96;nan;100444.28;4949752;29;20028;-82
2022/12/19 08:41:03;;;;;;;6.60;4.70;;;;;;;16.98;nan;100447.63;4952744;29;20042;-82
2022/12/19 08:43:32;;;;;;;8.52;5.82;;;;;;;16.97;nan;100449.41;4948060;28;20039;-82
2022/12/19 08:45:58;;;;;;;6.88;5.57;;;;;;;16.97;nan;100443.31;4911294;29;20400;-82
2022/12/19 08:48:25;;;;;;;8.45;5.72;;;;;;;16.97;nan;100448.59;4948497;29;20054;-83
2022/12/19 08:50:53;;;;;;;7.68;4.95;;;;;;;16.98;nan;100443.19;4948765;29;20404;-79
2022/12/19 08:53:19;;;;;;;6.03;4.70;;;;;;;17.00;nan;100445.69;4948014;28;20527;-81
2022/12/19 08:55:46;;;;;;;7.35;5.40;;;;;;;17.01;nan;100437.63;4965971;28;20051;-81
2022/12/19 08:58:12;;;;;;;6.07;5.22;;;;;;;17.00;nan;100435.13;4951624;28;20062;-81
2022/12/19 09:00:38;;;;;;;6.72;4.97;;;;;;;17.01;nan;100426.22;4953235;28;20043;-82
2022/12/19 09:03:04;;;;;;;6.07;5.03;;;;;;;17.01;nan;100421.81;4950942;28;20500;-81
2022/12/19 09:05:35;;;;;;;7.70;5.97;;;;;;;17.03;nan;100424.31;4954152;29;20412;-81
2022/12/19 09:08:01;;;;;;;5.40;4.88;;;;;;;17.03;nan;100424.31;4951309;29;20498;-81
2022/12/19 09:10:29;;;;;;;9.32;5.85;;;;;;;17.04;nan;100430.41;4943265;28;20031;-81
2022/12/19 09:12:55;;;;;;;6.40;4.85;;;;;;;17.05;nan;100434.69;4952802;28;20429;-81
2022/12/19 09:15:24;;;;;;;5.88;4.57;;;;;;;17.04;nan;100435.69;4951639;28;20054;-82
2022/12/19 09:17:51;;;;;;;7.53;5.43;;;;;;;17.05;nan;100430.28;4948375;28;20038;-81
2022/12/19 09:20:17;;;;;;;5.50;4.60;;;;;;;17.04;nan;100411.94;4953942;29;20066;-81
2022/12/19 09:22:43;;;;;;;7.30;5.38;;;;;;;17.05;nan;100408.31;4921423;28;20039;-81
2022/12/19 09:25:09;;;;;;;7.28;5.72;;;;;;;17.05;nan;100411.81;4937759;29;20051;-80
2022/12/19 09:27:38;;;;;;;6.60;4.85;;;;;;;17.05;nan;100422.38;4951196;29;20047;-81
2022/12/19 09:30:05;;;;;;;6.43;5.05;;;;;;;17.07;nan;100416.94;4954173;29;20051;-81
2022/12/19 09:32:31;;;;;;;7.53;5.38;;;;;;;17.06;nan;100402.06;4953762;29;20135;-81
2022/12/19 09:34:59;;;;;;;5.95;5.35;;;;;;;17.08;nan;100415.97;4951619;29;20039;-82
2022/12/19 09:37:26;;;;;;;6.57;5.78;;;;;;;17.09;nan;100420.28;4921324;29;20042;-81
2022/12/19 09:39:52;;;;;;;6.05;5.45;;;;;;;17.09;nan;100417.63;4938367;29;20046;-82
2022/12/19 09:42:45;;;;;;;7.40;5.82;;;;;;;17.08;nan;100416.81;4937732;29;20059;-81
2022/12/19 09:45:32;;;;;;;7.32;5.20;;;;;;;17.07;nan;100409.84;4949224;29;20039;-81
2022/12/19 09:48:00;;;;;;;6.05;4.97;;;;;;;17.09;nan;100407.91;4937302;29;20047;-81
2022/12/19 09:50:58;;;;;;;9.38;5.15;;;;;;;17.08;nan;100406.25;4955196;28;20039;-81
2022/12/19 09:53:38;;;;;;;6.55;5.35;;;;;;;17.08;nan;100408.91;4951688;28;20381;-80
2022/12/19 09:56:13;;;;;;;7.80;5.28;;;;;;;17.10;nan;100412.22;4952158;29;20046;-81
2022/12/19 09:58:43;;;;;;;8.07;6.18;;;;;;;17.08;nan;100413.31;4950600;29;20054;-81
2022/12/19 10:01:18;;;;;;;7.00;4.93;;;;;;;17.10;nan;100409.59;4935411;29;20512;-81
2022/12/19 10:04:01;;;;;;;9.35;6.05;;;;;;;17.10;nan;100412.22;4949945;28;20047;-81
2022/12/19 10:06:28;;;;;;;7.97;6.13;;;;;;;17.10;nan;100392.94;4950274;29;20058;-81
2022/12/19 10:08:57;;;;;;;6.95;5.30;;;;;;;17.09;nan;100392.06;4943349;29;20059;-80
2022/12/19 10:11:43;;;;;;;7.10;5.53;;;;;;;17.11;nan;100403.31;4953780;29;20031;-81
2022/12/19 10:14:31;;;;;;;6.88;5.30;;;;;;;17.10;nan;100404.31;4952418;28;20051;-81
2022/12/19 10:17:07;;;;;;;5.47;4.95;;;;;;;17.12;nan;100396.25;4936677;29;20042;-81
2022/12/19 10:19:53;;;;;;;6.28;5.30;;;;;;;17.10;nan;100398.22;4968473;28;20039;-81
2022/12/19 10:22:26;;;;;;;5.20;4.30;;;;;;;17.09;nan;100397.34;4951269;29;20062;-81
2022/12/19 10:25:04;;;;;;;5.53;4.90;;;;;;;17.10;nan;100388.47;4949074;28;20848;-76
2022/12/19 10:27:35;;;;;;;6.43;5.43;;;;;;;17.10;nan;100383.19;4933582;29;20424;-71
2022/12/19 10:30:21;;;;;;;6.18;5.07;;;;;;;17.11;nan;100386.66;4932701;29;20507;-65
2022/12/19 10:32:58;;;;;;;6.82;5.30;;;;;;;17.11;nan;100387.47;4927617;28;20058;-65
2022/12/19 10:35:31;;;;;;;5.38;4.88;;;;;;;17.11;nan;100384.84;4927220;29;20035;-84
2022/12/19 10:38:13;;;;;;;5.82;5.22;;;;;;;17.10;nan;100377.91;4940720;28;20031;-76
2022/12/19 10:40:46;;;;;;;6.97;5.50;;;;;;;17.10;nan;100371.81;4947409;28;20039;-79
2022/12/19 10:43:30;;;;;;;5.68;5.10;;;;;;;17.10;nan;100385.84;4932490;29;20035;-77
2022/12/19 10:46:02;;;;;;;7.30;5.25;;;;;;;17.09;nan;100381.50;4948692;29;20038;-79
2022/12/19 10:48:29;;;;;;;10.18;5.60;;;;;;;17.09;nan;100367.50;4951340;29;20526;-83
2022/12/19 10:50:55;;;;;;;5.68;4.47;;;;;;;17.10;nan;100366.53;4918839;29;20034;-82
2022/12/19 10:53:27;;;;;;;7.40;5.28;;;;;;;17.33;nan;100404.84;4948321;28;20043;-68
2022/12/19 10:55:59;;;;;;;6.78;5.30;;;;;;;17.47;nan;100368.41;4949947;29;20047;-70
2022/12/19 10:58:36;;;;;;;6.97;4.70;;;;;;;17.54;nan;100386.22;4946474;28;20039;-81
2022/12/19 11:01:24;;;;;;;6.15;4.40;;;;;;;17.42;nan;100362.72;4916319;29;20039;-67
2022/12/19 11:04:12;;;;;;;6.55;5.60;;;;;;;17.38;nan;100355.09;4932612;29;20043;-76
2022/12/19 11:06:42;;;;;;;7.10;5.20;;;;;;;17.42;nan;100350.34;4925535;29;20043;-89
2022/12/19 11:09:28;;;;;;;7.07;4.85;;;;;;;17.41;nan;100330.22;4941866;28;20058;-87
2022/12/19 11:12:01;;;;;;;6.35;5.68;;;;;;;17.47;nan;100332.28;4939052;29;20058;-88
2022/12/19 11:14:30;;;;;;;5.82;4.20;;;;;;;17.46;nan;100343.84;4921347;29;20043;-88
2022/12/19 11:16:56;;;;;;;7.45;5.13;;;;;;;17.42;nan;100339.78;4956290;28;20508;-90
2022/12/19 11:19:35;;;;;;;6.13;4.90;;;;;;;17.43;nan;100336.19;4938579;29;20038;-88
2022/12/19 11:22:26;;;;;;;6.35;4.90;;;;;;;17.40;nan;100336.47;4941878;29;20397;-89
2022/12/19 11:24:54;;;;;;;7.30;6.53;;;;;;;17.35;nan;100328.13;4932871;29;20524;-87
2022/12/19 11:27:37;;;;;;;7.47;5.00;;;;;;;17.35;nan;100325.50;4963430;28;20044;-76
2022/12/19 11:30:21;;;;;;;;;;;;;;;17.39;nan;100337.47;4947535;29;20417;-69
2022/12/19 11:33:05;;;;;;;7.78;5.45;;;;;;;17.56;nan;100357.84;4948474;29;19915;-82
2022/12/19 11:35:33;;;;;;;7.88;5.50;;;;;;;17.62;nan;100345.03;4933896;29;20043;-87
2022/12/19 11:38:03;;;;;;;8.07;5.47;;;;;;;17.60;nan;100337.25;4954520;29;20042;-88
2022/12/19 11:40:40;;;;;;;6.35;4.68;;;;;;;17.67;nan;100340.16;4951146;29;20035;-88
2022/12/19 11:43:20;;;;;;;8.65;5.50;;;;;;;17.68;nan;100332.09;4952487;28;20036;-85
2022/12/19 11:46:10;;;;;;;8.45;5.72;;;;;;;17.81;nan;100333.56;4932941;29;20050;-81
2022/12/19 11:48:36;;;;;;;7.03;4.95;;;;;;;17.77;nan;100317.19;4947654;28;20410;-80
2022/12/19 11:51:17;;;;;;;6.32;4.43;;;;;;;17.79;nan;100312.59;4965106;28;20492;-80
2022/12/19 11:53:49;;;;;;;6.00;4.57;;;;;;;17.89;nan;100323.97;4941120;28;20039;-81
2022/12/19 11:56:20;;;;;;;7.22;4.80;;;;;;;17.84;nan;100320.91;4947385;29;20428;-81
2022/12/19 11:58:50;;;;;;;7.63;5.35;;;;;;;17.82;nan;100324.69;4931694;28;20661;-80
2022/12/19 12:01:39;;;;;;;7.13;6.13;;;;;;;17.79;nan;100320.50;4965823;28;20035;-88
2022/12/19 12:04:24;;;;;;;5.72;4.53;;;;;;;17.83;nan;100318.41;4952665;28;20031;-88
2022/12/19 12:06:53;;;;;;;6.88;5.03;;;;;;;17.84;nan;100312.16;4960295;28;20050;-83
2022/12/19 12:09:55;;;;;;;6.10;5.28;;;;;;;17.90;nan;100307.16;4952068;29;20046;-77
2022/12/19 12:12:26;;;;;;;6.38;5.50;;;;;;;17.89;nan;100304.66;4926130;29;20416;-78
2022/12/19 12:15:31;;;;;;;8.02;5.80;;;;;;;17.89;nan;100300.19;4961153;28;20039;-73